ESSA/ARN METAR and TAF weather

Enter ICAO airport designator
Station Type Date Time Source
ESSA METAR 2020/06/01 15:20 UTC NOAA

ESSA 011520Z 34007KT 300V020 CAVOK 25/08 Q1023 NOSIG


Station Type Date Time Source
ESSA Decoded METAR 2020/06/01 15:20 UTC NOAA

Stockholm / Arlanda, Sweden (ESSA) 59-39N 017-57E 61M
Jun 01, 2020 - 11:20 AM EDT / 2020.06.01 1520 UTC
Wind: from the NNW (340 degrees) at 8 MPH (7 KT) (direction variable):0
Visibility: greater than 7 mile(s):0
Temperature: 77 F (25 C)
Dew Point: 46 F (8 C)
Relative Humidity: 33%
Pressure (altimeter): 30.21 in. Hg (1023 hPa)
ob: ESSA 011520Z 34007KT 300V020 CAVOK 25/08 Q1023 NOSIG
cycle: 15

Station Type Date Time Source
ESSA TAF 2020/06/01 12:18 UTC NOAA

TAF ESSA 011130Z 0112/0212 05007KT CAVOK
BECMG 0209/0211 16010KT

Example: see airport list